Terminal Aerodrome Forecast
Issued by NWS Sterling, VA

Current Version | Previous Version | Graphics & Text | Print | Product List | Glossary On
Versions: 1 2 3 4 5 6 7 8 9 10 11 12 13 14 15 16 17 18 19 20 21 22 23
657
FTUS41 KLWX 091329 AAA
TAFDCA
TAF AMD
KDCA 091329Z 0913/1012 00000KT 3SM -RASN BR OVC006
     FM091500 05006KT 2SM -SN OVC006
     FM091700 34007KT 4SM -SHRASN OVC015
     FM100200 29009KT P6SM OVC040=

USA.gov is the U.S. government's official web portal to all federal, state and local government web resources and services.